Usk, WA (99180)

8:47 AM PST on December 19, 2014 (GMT -0800)
KWADEERP3 | Change Station
CLOSE
Current Station
Personal Weather Station
Location: Pend Oreille County, WA
Elevation: 2482 ft
Nearby Weather Stations

Elev 2482 ft 48.09 °N, 117.43 °W | Updated 18 seconds ago

Mostly Cloudy
Mostly Cloudy
37.2 °F
Feels Like 37 °F
N
0.0
Wind Variable Wind from NW
Gusts 0.0 mph

Today
High -- | Low -- °F
--% Chance of Precip.
Yesterday
High -- | Low -- °F
Precip. -- in
7:36 AM 3:56 PM
Waning Crescent, 7% visible
Pressure 29.87 in
Visibility 4.0 miles
Clouds Scattered Clouds 400 ft
Overcast 1200 ft
Windchill 37 °F
Dew Point 36 °F
Humidity 94%
Rainfall 0.18 in
Snow Depth Not available.
UV 0 out of 12
Pollen .10 out of 12
Air Quality Not available.
Flu Activity Not available.
SPECI KDEW 191638Z AUTO 25003KT 4SM BR SCT004 OVC012 03/03 A2987 RMK AO2 T00330028

More Conditions Fewer Conditions

Pressure 29.87 in
Visibility 4.0 miles
Clouds Scattered Clouds 400 ft
Overcast 1200 ft
Windchill 37 °F
Dew Point 36 °F
Humidity 94%
Rainfall 0.18 in
Snow Depth Not available.
UV 0 out of 12
Pollen .10 out of 12
Air Quality Not available.
Flu Activity Not available.
SPECI KDEW 191638Z AUTO 25003KT 4SM BR SCT004 OVC012 03/03 A2987 RMK AO2 T00330028

More Conditions Fewer Conditions

10-Day Weather Forecast

Almanac

Astronomy

Dec. 19, 2014 Rise Set
Actual Time
Civil Twilight
Nautical Twilight
Astronomical Twilight
Moon
Length of Visible Light
Length of Day
Tomorrow will be .
, % of the Moon is Illuminated

Today's Extremes

State Highs State Lows

Community

WunderPhotos

Upload Photos

1,779,005 photos uploaded!

WunderBlogs® & News

Nearby

Air Quality

  Air Quality AQ Index Pollutant
Not available.

Snow Depth

Station Depth Elevation

Earthquake Activity

City Distance Mag. Time & Date
Minimum magnitude displayed is 2.5.

Coastal Water Temperatures

Place Temperature

Nearby Weather Stations